Time;durP1;ratioP1;P1;durP2;ratioP2;P2;SDS_P1;SDS_P2;PMS_P1;PMS_P2;Temp;Humidity;BMP_temperature;BMP_pressure;BME280_temperature;BME280_humidity;BME280_pressure;Samples;Min_cycle;Max_cycle;Signal;HPM_P1;HPM_P2
2022/05/06 00:00:47;;;;;;;27.00;20.57;;;;;;;12.47;77.89;100701.79;2218610;78;20985;-83
2022/05/06 00:03:49;;;;;;;100.60;16.62;;;;;;;12.44;77.86;100697.27;2236970;78;21011;-80
2022/05/06 00:06:50;;;;;;;86.12;18.80;;;;;;;12.37;77.73;100714.91;2233844;78;21005;-80
2022/05/06 00:09:52;;;;;;;84.25;19.50;;;;;;;12.27;77.84;100709.72;2223541;78;21085;-82
2022/05/06 00:12:53;;;;;;;19.73;17.07;;;;;;;12.22;78.00;100708.90;2225474;78;21508;-79
2022/05/06 00:15:54;;;;;;;45.50;20.52;;;;;;;12.16;78.10;100705.53;2227342;78;20970;-81
2022/05/06 00:18:55;;;;;;;22.52;20.12;;;;;;;12.14;78.00;100725.34;2222013;78;21056;-80
2022/05/06 00:21:56;;;;;;;20.00;17.90;;;;;;;12.09;77.89;100719.99;2229201;78;21068;-82
2022/05/06 00:24:57;;;;;;;22.85;19.80;;;;;;;12.00;77.65;100716.15;2235731;78;21533;-81
2022/05/06 00:27:58;;;;;;;24.85;21.35;;;;;;;11.94;77.59;100722.09;2239222;78;21060;-79
2022/05/06 00:31:02;;;;;;;21.50;19.25;;;;;;;11.91;77.75;100723.27;2233681;78;21057;-82
2022/05/06 00:34:03;;;;;;;21.37;17.95;;;;;;;11.87;77.47;100728.55;2236601;78;21029;-81
2022/05/06 00:37:05;;;;;;;21.93;16.48;;;;;;;11.77;77.32;100729.14;2242949;78;21427;-80
2022/05/06 00:40:07;;;;;;;17.42;15.65;;;;;;;11.71;77.57;100727.12;2238354;78;21014;-84
2022/05/06 00:43:08;;;;;;;18.55;16.65;;;;;;;11.68;77.65;100724.28;2237939;78;20979;-78
2022/05/06 00:46:15;;;;;;;19.92;17.82;;;;;;;11.67;77.57;100720.80;2237056;78;21001;-84
2022/05/06 00:49:16;;;;;;;17.52;15.72;;;;;;;11.65;77.45;100724.10;2231058;78;21543;-79
2022/05/06 00:52:18;;;;;;;18.32;16.45;;;;;;;11.60;77.40;100723.77;2235610;78;21006;-85
2022/05/06 00:55:19;;;;;;;18.52;15.95;;;;;;;11.56;77.28;100734.36;2234511;78;21010;-81
2022/05/06 00:58:23;;;;;;;18.55;15.20;;;;;;;11.53;77.34;100732.52;2239605;78;20973;-80
2022/05/06 01:01:24;;;;;;;19.15;17.15;;;;;;;11.51;77.28;100732.67;2243148;78;21512;-81
2022/05/06 01:04:26;;;;;;;21.40;17.67;;;;;;;11.44;77.21;100733.80;2239749;78;21095;-85
2022/05/06 01:07:27;;;;;;;16.82;15.13;;;;;;;11.38;77.35;100734.44;2238834;78;20989;-81
2022/05/06 01:10:29;;;;;;;17.32;15.50;;;;;;;11.37;77.48;100739.89;2236521;78;21083;-80
2022/05/06 01:13:43;;;;;;;15.28;13.78;;;;;;;11.36;77.73;100736.41;2232310;78;21046;-78
2022/05/06 01:16:46;;;;;;;16.27;14.58;;;;;;;11.35;77.87;100743.23;2237349;78;21037;-80
2022/05/06 01:19:47;;;;;;;18.00;16.10;;;;;;;11.35;77.87;100743.23;2242919;78;21020;-81
2022/05/06 01:22:52;;;;;;;18.12;16.27;;;;;;;11.32;77.83;100746.16;2236933;78;21075;-82
2022/05/06 01:25:53;;;;;;;17.73;15.83;;;;;;;11.32;77.83;100746.16;2239385;78;21105;-78
2022/05/06 01:28:55;;;;;;;20.05;17.67;;;;;;;11.32;77.71;100749.69;2234859;78;20985;-85
2022/05/06 01:31:57;;;;;;;18.80;16.77;;;;;;;11.31;77.69;100749.83;2237808;78;20977;-80
2022/05/06 01:35:00;;;;;;;20.82;18.42;;;;;;;11.13;77.77;100724.14;2237442;78;21001;-81
2022/05/06 01:38:04;;;;;;;19.52;17.45;;;;;;;11.13;77.77;100724.14;2239527;78;20977;-78
2022/05/06 01:41:10;;;;;;;17.40;15.40;;;;;;;11.18;77.75;100744.44;2236927;78;21057;-81
2022/05/06 01:44:17;;;;;;;15.83;14.13;;;;;;;11.16;77.79;100748.23;2233364;78;20974;-79
2022/05/06 01:47:26;;;;;;;19.40;16.30;;;;;;;11.10;77.59;100747.53;2236524;78;21033;-82
2022/05/06 01:50:32;;;;;;;21.87;18.82;;;;;;;11.06;77.65;100743.00;2231596;78;21005;-80
2022/05/06 01:53:34;;;;;;;27.20;20.57;;;;;;;11.00;78.11;100745.78;2238621;78;20971;-81
2022/05/06 01:56:35;;;;;;;23.27;19.27;;;;;;;10.94;78.35;100734.45;2236493;78;20959;-82
2022/05/06 01:59:36;;;;;;;25.15;18.92;;;;;;;10.92;78.54;100741.73;2235072;78;20958;-81
2022/05/06 02:02:40;;;;;;;19.98;17.85;;;;;;;10.88;78.69;100746.20;2225740;78;21064;-81
2022/05/06 02:05:41;;;;;;;24.07;20.60;;;;;;;10.91;78.71;100748.54;2235122;78;21407;-79
2022/05/06 02:08:42;;;;;;;22.20;19.87;;;;;;;10.91;78.71;100748.54;2240005;78;21017;-80
2022/05/06 02:11:45;;;;;;;21.70;18.90;;;;;;;10.91;78.76;100749.87;2227340;78;21017;-79
2022/05/06 02:14:47;;;;;;;23.07;19.00;;;;;;;10.89;78.72;100746.02;2241315;78;21013;-80
2022/05/06 02:17:56;;;;;;;24.05;21.52;;;;;;;10.89;78.79;100746.02;2233565;78;21511;-81
2022/05/06 02:21:06;;;;;;;23.45;20.95;;;;;;;10.92;79.00;100743.56;2236774;78;21049;-82
2022/05/06 02:24:18;;;;;;;28.47;22.22;;;;;;;10.93;79.00;100743.92;2235829;78;21093;-79
2022/05/06 02:27:40;;;;;;;24.72;22.05;;;;;;;10.94;79.17;100745.08;2104915;83;21038;-80
2022/05/06 02:34:05;;;;;;;27.55;22.27;;;;;;;10.98;79.33;100750.91;2219291;79;21017;-80
2022/05/06 02:37:08;;;;;;;28.57;23.98;;;;;;;10.97;79.45;100755.39;2226506;79;20998;-81
2022/05/06 02:40:12;;;;;;;26.15;22.13;;;;;;;10.99;79.53;100763.22;2227267;79;21575;-80
2022/05/06 02:43:14;;;;;;;28.65;23.05;;;;;;;11.03;79.54;100769.88;2225737;79;21506;-79
2022/05/06 02:46:15;;;;;;;28.62;23.57;;;;;;;11.05;79.64;100777.70;2225188;79;20966;-81
2022/05/06 02:49:16;;;;;;;27.95;24.02;;;;;;;11.08;79.71;100782.20;2226557;79;20982;-80
2022/05/06 02:52:18;;;;;;;27.67;23.50;;;;;;;11.11;79.92;100780.56;2223636;79;20982;-81
2022/05/06 02:55:21;;;;;;;26.48;23.22;;;;;;;11.16;79.94;100784.09;2222965;79;20983;-81
2022/05/06 02:58:23;;;;;;;27.85;23.38;;;;;;;11.20;79.98;100789.42;2223322;79;21044;-81
2022/05/06 03:01:24;;;;;;;27.30;22.73;;;;;;;11.20;80.03;100802.20;2223860;79;21026;-84
2022/05/06 03:04:27;;;;;;;28.60;22.80;;;;;;;11.16;79.90;100792.89;2192562;79;21077;-84
2022/05/06 03:07:28;;;;;;;26.97;22.75;;;;;;;11.17;79.98;100785.75;2225712;79;21002;-83
2022/05/06 03:10:31;;;;;;;28.45;23.60;;;;;;;11.19;79.95;100788.59;2228459;79;21038;-82
2022/05/06 03:13:32;;;;;;;28.95;23.83;;;;;;;11.19;79.86;100786.44;2229784;79;20995;-84
2022/05/06 03:16:35;;;;;;;30.45;25.23;;;;;;;11.19;79.86;100786.44;2226674;79;21018;-82
2022/05/06 03:19:36;;;;;;;28.40;24.77;;;;;;;11.21;79.95;100791.11;2225811;79;21019;-82
2022/05/06 03:22:46;;;;;;;30.70;26.55;;;;;;;11.20;80.09;100788.92;2224757;79;20978;-79
2022/05/06 03:25:47;;;;;;;28.02;24.60;;;;;;;11.24;80.30;100787.31;2237070;78;21456;-82
2022/05/06 03:28:48;;;;;;;30.35;26.80;;;;;;;11.24;80.30;100787.31;2240160;78;21030;-79
2022/05/06 03:31:53;;;;;;;31.15;25.62;;;;;;;11.22;80.18;100789.61;2238943;78;21023;-82
2022/05/06 03:34:56;;;;;;;32.38;25.90;;;;;;;11.11;80.46;100791.19;2241427;78;21544;-81
2022/05/06 03:37:58;;;;;;;29.12;24.72;;;;;;;11.11;80.46;100791.19;2206462;78;21111;-81
2022/05/06 03:40:59;;;;;;;27.37;23.85;;;;;;;11.13;80.22;100797.69;2243420;78;21366;-83
2022/05/06 03:44:02;;;;;;;30.68;24.82;;;;;;;11.13;80.13;100806.48;2230860;78;20981;-82
2022/05/06 03:47:03;;;;;;;29.42;26.15;;;;;;;11.13;80.09;100812.30;2213289;78;20992;-81
2022/05/06 03:53:13;;;;;;;31.57;27.25;;;;;;;10.99;80.21;100811.84;2170015;78;21504;-82
2022/05/06 03:56:17;;;;;;;36.50;28.70;;;;;;;10.94;80.45;100818.59;2237971;78;21019;-80
2022/05/06 03:59:19;;;;;;;33.98;29.05;;;;;;;10.89;80.53;100814.23;2210855;78;21089;-83
2022/05/06 04:02:22;;;;;;;36.17;29.40;;;;;;;10.89;80.83;100816.87;2243349;78;21466;-80
2022/05/06 04:05:24;;;;;;;38.08;32.08;;;;;;;10.79;81.08;100794.91;2208157;78;21528;-79
2022/05/06 04:08:27;;;;;;;41.13;30.92;;;;;;;10.95;81.24;100822.44;2239017;78;21064;-82
2022/05/06 04:11:30;;;;;;;37.70;32.30;;;;;;;11.20;81.73;100836.73;2241977;78;21519;-79
2022/05/06 04:14:34;;;;;;;37.03;30.52;;;;;;;11.42;81.48;100831.94;2240872;78;21077;-81
2022/05/06 04:17:36;;;;;;;37.53;31.97;;;;;;;11.42;81.48;100831.94;2236863;78;21052;-81
2022/05/06 04:23:58;;;;;;;36.30;30.15;;;;;;;11.85;81.12;100852.38;2240081;78;21501;-82
2022/05/06 04:26:59;;;;;;;38.83;31.57;;;;;;;11.99;80.79;100856.75;2208703;79;20954;-82
2022/05/06 04:30:01;;;;;;;31.87;27.93;;;;;;;12.05;80.66;100860.97;2216009;79;21017;-80
2022/05/06 04:33:04;;;;;;;35.17;28.23;;;;;;;12.19;80.55;100860.02;2218911;79;21042;-82
2022/05/06 04:36:07;;;;;;;34.03;29.37;;;;;;;12.31;80.55;100861.42;2221008;79;21145;-81
2022/05/06 04:39:09;;;;;;;33.83;28.38;;;;;;;12.54;80.58;100859.83;2213531;79;21045;-79
2022/05/06 04:42:13;;;;;;;35.90;29.35;;;;;;;12.71;80.30;100862.05;2258643;78;20945;-81
2022/05/06 04:45:14;;;;;;;34.50;28.40;;;;;;;12.74;79.94;100862.22;2225231;79;20983;-78
2022/05/06 04:48:18;;;;;;;33.67;28.00;;;;;;;12.70;79.78;100864.38;2222146;79;20995;-80
2022/05/06 04:51:21;;;;;;;34.08;27.35;;;;;;;12.67;79.72;100867.84;2222366;79;21049;-78
2022/05/06 04:54:24;;;;;;;32.70;27.13;;;;;;;12.59;79.73;100866.52;2227547;79;21426;-79
2022/05/06 04:57:26;;;;;;;32.60;25.65;;;;;;;12.53;79.73;100872.81;2225169;78;21073;-79
2022/05/06 05:00:27;;;;;;;32.48;23.77;;;;;;;12.49;79.63;100873.28;2193171;79;20994;-79
2022/05/06 05:03:28;;;;;;;30.68;25.08;;;;;;;12.41;79.41;100874.59;2223136;79;20953;-79
2022/05/06 05:06:31;;;;;;;31.95;25.90;;;;;;;12.31;79.41;100873.39;2217990;78;21018;-80
2022/05/06 05:09:34;;;;;;;33.98;24.25;;;;;;;12.32;79.63;100869.73;2208048;79;20996;-79
2022/05/06 05:12:36;;;;;;;27.67;23.18;;;;;;;12.29;79.46;100874.04;2217098;78;21001;-77
2022/05/06 05:15:38;;;;;;;29.55;23.00;;;;;;;12.29;79.50;100876.20;2235760;79;21024;-78
2022/05/06 05:18:40;;;;;;;27.55;22.35;;;;;;;12.35;79.59;100881.37;2203178;79;20981;-78
2022/05/06 05:21:42;;;;;;;29.70;23.83;;;;;;;12.41;79.59;100889.22;2240796;78;20995;-79
2022/05/06 05:24:44;;;;;;;29.30;23.95;;;;;;;12.47;79.62;100889.91;2240305;78;21449;-78
2022/05/06 05:27:45;;;;;;;29.85;22.98;;;;;;;12.51;79.38;100888.11;2230676;79;21040;-78
2022/05/06 05:30:49;;;;;;;26.05;21.87;;;;;;;12.54;79.49;100893.11;2229303;79;21520;-79
2022/05/06 05:33:52;;;;;;;29.05;22.22;;;;;;;12.59;79.46;100894.47;2198808;79;21037;-80
2022/05/06 05:36:54;;;;;;;26.82;21.02;;;;;;;12.65;79.42;100896.48;2230530;79;20991;-79
2022/05/06 05:39:56;;;;;;;24.10;19.57;;;;;;;12.71;79.31;100901.98;2231831;79;20997;-79
2022/05/06 05:42:57;;;;;;;21.70;18.52;;;;;;;12.75;79.08;100895.83;2236942;78;20934;-79
2022/05/06 05:49:18;;;;;;;23.47;18.80;;;;;;;12.65;78.30;100903.97;2231116;79;21540;-80
2022/05/06 05:52:20;;;;;;;18.65;16.45;;;;;;;12.68;78.18;100911.63;2226040;78;21070;-77
2022/05/06 05:55:23;;;;;;;24.05;16.85;;;;;;;12.68;77.57;100916.13;2201039;78;20998;-78
2022/05/06 05:58:24;;;;;;;21.12;16.62;;;;;;;12.68;77.73;100920.12;2230527;79;21457;-79
2022/05/06 06:01:26;;;;;;;20.55;17.48;;;;;;;12.71;77.45;100917.13;2233953;78;21612;-78
2022/05/06 06:04:29;;;;;;;19.80;16.75;;;;;;;12.76;77.75;100922.81;2218577;79;21103;-79
2022/05/06 06:07:32;;;;;;;27.17;15.85;;;;;;;12.81;77.01;100922.31;2233574;79;21025;-77
2022/05/06 06:10:34;;;;;;;22.15;14.60;;;;;;;12.79;76.19;100923.82;2235617;79;21073;-79
2022/05/06 06:13:37;;;;;;;17.42;13.43;;;;;;;12.74;75.66;100926.13;2233130;79;21006;-78
2022/05/06 06:16:40;;;;;;;15.53;13.00;;;;;;;12.74;75.63;100923.47;2235583;79;21014;-80
2022/05/06 06:19:42;;;;;;;16.07;12.07;;;;;;;12.80;75.67;100930.80;2234431;78;21445;-79
2022/05/06 06:22:45;;;;;;;15.23;11.73;;;;;;;12.85;75.13;100927.16;2234748;79;21441;-78
2022/05/06 06:25:48;;;;;;;16.77;11.40;;;;;;;12.85;74.76;100931.16;2232150;78;21084;-80
2022/05/06 06:28:50;;;;;;;20.25;11.70;;;;;;;12.87;74.31;100926.52;2222899;79;21041;-78
2022/05/06 06:31:51;;;;;;;14.45;10.90;;;;;;;12.88;74.17;100932.16;2223269;79;21024;-80
2022/05/06 06:34:55;;;;;;;14.15;10.50;;;;;;;12.95;73.83;100929.20;2219362;79;21426;-79
2022/05/06 06:37:56;;;;;;;18.55;10.72;;;;;;;13.13;73.86;100929.06;2218683;79;21038;-77
2022/05/06 06:41:00;;;;;;;12.37;9.90;;;;;;;13.29;73.21;100922.97;2219832;79;20992;-78
2022/05/06 06:44:01;;;;;;;12.20;9.63;;;;;;;13.51;71.95;100927.30;2216161;79;21449;-79
2022/05/06 06:47:11;;;;;;;15.00;9.10;;;;;;;13.81;71.88;100921.80;2210393;79;21069;-78
2022/05/06 06:50:29;;;;;;;13.60;9.00;;;;;;;14.09;71.90;100926.27;2222946;79;21558;-80
2022/05/06 06:53:32;;;;;;;17.52;9.38;;;;;;;14.30;69.12;100925.70;2224005;79;21010;-79
2022/05/06 06:56:33;;;;;;;14.53;8.70;;;;;;;14.33;69.87;100928.87;2223668;79;20993;-79
2022/05/06 06:59:34;;;;;;;12.05;7.42;;;;;;;14.44;69.75;100927.65;2227348;79;21529;-80
2022/05/06 07:02:36;;;;;;;13.45;7.80;;;;;;;14.40;66.23;100933.02;2228467;79;21466;-79
2022/05/06 07:11:52;;;;;;;14.50;7.30;;;;;;;14.20;67.27;100937.09;2225147;79;21489;-80
2022/05/06 07:12:00;;;;;;;10.18;6.67;;;;;;;14.33;67.67;100942.70;2221712;79;21026;-78
2022/05/06 07:15:07;;;;;;;12.98;6.62;;;;;;;14.43;66.96;100949.20;2227990;79;20974;-79
2022/05/06 07:18:08;;;;;;;8.55;6.70;;;;;;;14.54;67.26;100945.68;2223192;79;22046;-80
2022/05/06 07:21:09;;;;;;;10.30;6.92;;;;;;;14.69;66.53;100945.78;2226692;79;21459;-78
2022/05/06 07:24:10;;;;;;;11.03;5.80;;;;;;;14.84;65.87;100941.90;2230150;79;21079;-82
2022/05/06 07:27:11;;;;;;;14.00;5.85;;;;;;;14.86;64.52;100949.72;2222309;78;21069;-80
2022/05/06 07:30:12;;;;;;;13.03;5.80;;;;;;;14.88;64.27;100953.06;2225704;79;21017;-78
2022/05/06 07:33:14;;;;;;;7.65;5.67;;;;;;;14.91;63.52;100958.05;2217703;79;20963;-78
2022/05/06 07:36:15;;;;;;;10.75;6.08;;;;;;;14.75;63.31;100957.13;2219015;79;20982;-79
2022/05/06 07:39:16;;;;;;;7.70;5.25;;;;;;;14.56;60.85;100961.55;2225703;79;20997;-80
2022/05/06 07:42:17;;;;;;;9.78;5.47;;;;;;;14.47;62.93;100960.71;2220053;79;20972;-81
2022/05/06 07:45:18;;;;;;;10.03;5.65;;;;;;;14.67;62.63;100962.98;2220755;79;21426;-79
2022/05/06 07:48:19;;;;;;;14.05;6.58;;;;;;;14.89;63.29;100968.90;2217060;79;20986;-76
2022/05/06 07:51:20;;;;;;;12.70;6.90;;;;;;;14.96;62.46;100962.37;2223887;79;20942;-79
2022/05/06 07:54:22;;;;;;;14.15;6.80;;;;;;;15.09;62.47;100969.33;2227568;79;21138;-76
2022/05/06 07:57:23;;;;;;;12.35;7.15;;;;;;;15.07;61.98;100967.33;2225121;79;21027;-77
2022/05/06 08:00:24;;;;;;;11.43;6.58;;;;;;;15.17;61.87;100962.57;2221166;79;20985;-80
2022/05/06 08:06:44;;;;;;;13.88;5.95;;;;;;;16.01;62.12;100961.30;2223644;79;21049;-79
2022/05/06 08:09:45;;;;;;;7.60;5.60;;;;;;;16.33;61.07;100956.14;2222779;79;20946;-79
2022/05/06 08:12:47;;;;;;;13.30;5.45;;;;;;;16.54;60.24;100953.22;2224421;79;20970;-77
2022/05/06 08:15:51;;;;;;;6.35;4.42;;;;;;;16.68;59.45;100956.91;2225963;79;21017;-80
2022/05/06 08:18:52;;;;;;;12.05;4.78;;;;;;;16.85;58.42;100954.38;2222649;79;20943;-79
2022/05/06 08:21:53;;;;;;;10.05;4.60;;;;;;;17.27;58.89;100955.98;2224556;79;20986;-77
2022/05/06 08:24:54;;;;;;;8.45;4.83;;;;;;;17.81;58.05;100957.66;2228644;79;21025;-78
2022/05/06 08:27:56;;;;;;;10.63;5.60;;;;;;;18.36;57.38;100959.20;2227325;79;21007;-79
2022/05/06 08:30:57;;;;;;;14.50;5.55;;;;;;;18.71;56.53;100957.83;2227368;79;21086;-81
2022/05/06 08:33:59;;;;;;;9.03;4.97;;;;;;;19.12;56.41;100966.38;2223802;79;20994;-80
2022/05/06 08:37:00;;;;;;;6.72;4.70;;;;;;;19.62;56.58;100967.72;2225222;79;21012;-81
2022/05/06 08:40:01;;;;;;;11.00;4.87;;;;;;;19.97;53.04;100963.53;2227707;79;20947;-78
2022/05/06 08:43:06;;;;;;;10.13;4.78;;;;;;;20.02;51.26;100970.48;2224848;79;20950;-79
2022/05/06 08:52:48;;;;;;;12.35;5.92;;;;;;;19.62;52.08;100975.80;2223746;79;21009;-79
2022/05/06 08:55:51;;;;;;;13.68;4.17;;;;;;;19.58;50.63;100981.30;2223388;79;21491;-80
2022/05/06 08:58:54;;;;;;;8.38;4.28;;;;;;;19.51;50.80;100972.36;2219233;79;20993;-80
2022/05/06 09:01:55;;;;;;;9.10;4.47;;;;;;;19.52;51.55;100978.08;2225201;79;21049;-79
2022/05/06 09:04:58;;;;;;;6.53;4.50;;;;;;;19.67;51.09;100984.12;2221756;79;21458;-78
2022/05/06 09:08:03;;;;;;;6.42;3.83;;;;;;;19.86;50.92;100980.31;2224069;79;22473;-79
2022/05/06 09:11:09;;;;;;;19.25;5.33;;;;;;;19.83;47.09;100979.38;2201575;79;21034;-80
2022/05/06 09:14:17;;;;;;;8.13;4.00;;;;;;;19.68;50.11;100979.06;2223333;79;20950;-79
2022/05/06 09:17:20;;;;;;;9.43;4.25;;;;;;;19.84;49.85;100988.59;2222713;79;20954;-81
2022/05/06 09:20:22;;;;;;;10.15;4.25;;;;;;;20.08;49.92;100984.45;2223497;79;21114;-78
2022/05/06 09:23:29;;;;;;;6.03;4.33;;;;;;;20.30;49.77;100988.24;2224075;79;20958;-78
2022/05/06 09:26:30;;;;;;;6.37;3.87;;;;;;;20.22;49.34;100985.80;2226530;78;21069;-77
2022/05/06 09:29:39;;;;;;;8.18;4.47;;;;;;;20.59;49.41;100978.38;2228647;78;21004;-80
2022/05/06 09:32:40;;;;;;;13.98;5.15;;;;;;;20.70;49.15;100980.12;2219375;78;21025;-79
2022/05/06 09:35:41;;;;;;;6.87;4.40;;;;;;;20.82;49.34;100977.05;2219863;78;20985;-80
2022/05/06 09:39:02;;;;;;;8.45;4.15;;;;;;;20.91;48.11;100971.72;2225287;78;20982;-79
2022/05/06 09:42:06;;;;;;;9.75;4.65;;;;;;;20.88;48.27;100969.98;2222327;78;21016;-79
2022/05/06 09:45:14;;;;;;;7.53;4.50;;;;;;;20.91;46.71;100966.33;2219927;78;20982;-79
2022/05/06 09:48:15;;;;;;;10.28;4.45;;;;;;;21.10;47.51;100965.11;2230491;78;21602;-80
2022/05/06 09:51:26;;;;;;;10.68;4.20;;;;;;;21.15;46.64;100965.30;2225509;78;21467;-76
2022/05/06 09:54:32;;;;;;;7.40;4.72;;;;;;;21.22;46.88;100966.07;2222353;78;21013;-78
2022/05/06 09:57:36;;;;;;;7.85;4.45;;;;;;;21.36;46.73;100959.55;2215215;78;20954;-81
2022/05/06 10:00:38;;;;;;;7.75;4.67;;;;;;;20.98;44.51;100953.65;2229042;78;21460;-79
2022/05/06 10:03:40;;;;;;;6.50;4.50;;;;;;;20.64;46.35;100951.28;2216320;78;21520;-78
2022/05/06 10:06:41;;;;;;;10.50;5.97;;;;;;;20.81;46.03;100945.75;2222621;78;21002;-82
2022/05/06 10:10:05;;;;;;;7.40;4.55;;;;;;;21.08;46.61;100945.60;2225484;78;21009;-81
2022/05/06 10:13:15;;;;;;;6.75;4.25;;;;;;;21.08;45.50;100932.94;2218928;78;21501;-80
2022/05/06 10:16:16;;;;;;;8.30;4.03;;;;;;;20.96;44.86;100942.23;2214487;78;21045;-76
2022/05/06 10:19:39;;;;;;;7.97;4.15;;;;;;;20.99;45.64;100944.50;2219403;78;21002;-78
2022/05/06 10:23:04;;;;;;;6.20;3.60;;;;;;;21.06;44.68;100948.50;2225657;78;21033;-79
2022/05/06 10:26:04;;;;;;;8.98;3.95;;;;;;;21.04;44.51;100937.94;2224706;78;20932;-80
2022/05/06 10:32:53;;;;;;;8.93;4.60;;;;;;;20.91;44.59;100939.88;2222808;78;21009;-79
2022/05/06 10:35:54;;;;;;;9.13;3.70;;;;;;;20.98;44.14;100936.11;2225136;79;21011;-80
2022/05/06 10:38:55;;;;;;;5.58;3.50;;;;;;;21.15;44.13;100932.91;2223101;79;21001;-79
2022/05/06 10:42:07;;;;;;;6.67;3.17;;;;;;;21.36;43.74;100935.78;2225122;79;20997;-78
2022/05/06 10:45:31;;;;;;;7.47;3.37;;;;;;;21.23;43.24;100924.53;2222501;79;21246;-79
2022/05/06 10:48:32;;;;;;;7.67;3.47;;;;;;;21.51;43.18;100929.56;2222662;79;21810;-77
2022/05/06 10:51:33;;;;;;;6.22;3.45;;;;;;;21.43;42.26;100927.98;2221316;79;21414;-80
2022/05/06 10:54:34;;;;;;;5.40;3.47;;;;;;;21.40;41.78;100936.52;2224595;79;20980;-78
2022/05/06 10:57:58;;;;;;;5.33;3.35;;;;;;;21.21;41.11;100938.26;2224876;79;21042;-78
2022/05/06 11:01:00;;;;;;;5.12;3.42;;;;;;;20.99;41.91;100935.59;2226155;79;21018;-78
2022/05/06 11:04:02;;;;;;;4.83;3.80;;;;;;;21.07;42.34;100931.29;2229190;79;20966;-78
2022/05/06 11:07:13;;;;;;;4.55;3.12;;;;;;;21.13;42.00;100934.47;2225698;79;20953;-77
2022/05/06 11:10:21;;;;;;;4.75;3.60;;;;;;;21.19;41.96;100926.03;2224794;79;20951;-80
2022/05/06 11:13:25;;;;;;;5.67;3.42;;;;;;;20.90;41.00;100930.96;2214575;79;21022;-77
2022/05/06 11:16:26;;;;;;;6.60;3.87;;;;;;;20.82;41.77;100935.25;2224714;79;21107;-79
2022/05/06 11:19:33;;;;;;;7.67;3.55;;;;;;;20.89;42.42;100929.32;2226929;79;21466;-79
2022/05/06 11:22:36;;;;;;;9.50;4.47;;;;;;;20.91;42.35;100931.26;2228693;79;20975;-81
2022/05/06 11:25:41;;;;;;;8.18;3.62;;;;;;;20.99;42.38;100924.27;2223389;79;21010;-80
2022/05/06 11:28:48;;;;;;;6.00;3.52;;;;;;;20.96;42.18;100911.73;2236667;78;21029;-79
2022/05/06 11:31:49;;;;;;;7.00;3.22;;;;;;;20.97;41.70;100907.46;2235493;78;21125;-78
2022/05/06 11:35:09;;;;;;;5.67;3.30;;;;;;;21.01;41.85;100911.40;2231859;78;21061;-81
2022/05/06 11:38:11;;;;;;;9.30;3.10;;;;;;;21.13;42.09;100910.70;2232616;78;21024;-78
2022/05/06 11:41:15;;;;;;;5.53;2.47;;;;;;;21.20;41.25;100912.33;2234823;78;20966;-78
2022/05/06 11:47:27;;;;;;;8.25;2.27;;;;;;;21.13;40.96;100901.27;2228363;78;20981;-80
2022/05/06 11:47:28;;;;;;;13.10;2.80;;;;;;;21.07;40.37;100903.48;2232114;78;21489;-79
2022/05/06 11:50:29;;;;;;;6.20;2.42;;;;;;;20.93;40.08;100900.03;2241416;78;20953;-79
2022/05/06 11:53:31;;;;;;;3.90;2.10;;;;;;;20.90;40.56;100903.99;2237577;78;21435;-78
2022/05/06 11:56:33;;;;;;;7.10;2.65;;;;;;;21.01;40.35;100907.87;2237492;78;21472;-79
2022/05/06 11:59:34;;;;;;;4.53;2.00;;;;;;;21.22;39.96;100900.77;2240868;78;20958;-79
2022/05/06 12:02:35;;;;;;;4.47;2.60;;;;;;;21.27;39.33;100900.95;2232300;78;21527;-81
2022/05/06 12:05:38;;;;;;;5.78;2.62;;;;;;;21.19;39.23;100901.21;2238312;78;20998;-80
2022/05/06 12:08:39;;;;;;;7.42;2.20;;;;;;;21.19;39.08;100900.39;2237431;78;21010;-77
2022/05/06 12:11:43;;;;;;;5.00;2.35;;;;;;;21.20;38.86;100904.73;2233016;78;21012;-77
2022/05/06 12:14:44;;;;;;;7.30;2.62;;;;;;;21.16;38.71;100899.48;2238223;78;21017;-78
2022/05/06 12:17:45;;;;;;;4.03;2.20;;;;;;;21.35;39.08;100902.56;2237581;78;20984;-79
2022/05/06 12:20:46;;;;;;;6.33;2.02;;;;;;;21.51;38.50;100900.39;2231667;78;20963;-80
2022/05/06 12:23:57;;;;;;;6.70;2.62;;;;;;;21.29;38.42;100894.00;2236039;78;21076;-78
2022/05/06 12:26:58;;;;;;;5.12;2.25;;;;;;;21.14;38.38;100894.81;2227641;78;21029;-78
2022/05/06 12:30:04;;;;;;;5.85;2.10;;;;;;;21.20;38.55;100885.84;2233673;78;21014;-79
2022/05/06 12:33:11;;;;;;;5.47;2.40;;;;;;;21.28;38.25;100886.93;2236087;78;20990;-78
2022/05/06 12:36:19;;;;;;;8.65;3.10;;;;;;;21.22;37.67;100881.88;2229653;78;21005;-79
2022/05/06 12:39:23;;;;;;;6.75;2.70;;;;;;;21.00;37.99;100892.19;2233617;78;20971;-80
2022/05/06 12:42:24;;;;;;;6.22;2.60;;;;;;;20.86;37.80;100893.84;2236023;78;21283;-79
2022/05/06 12:45:25;;;;;;;5.45;2.65;;;;;;;20.90;38.26;100893.20;2234504;78;20985;-78
2022/05/06 12:51:47;;;;;;;10.53;2.87;;;;;;;21.02;38.52;100890.11;2237626;78;21081;-79
2022/05/06 12:54:48;;;;;;;5.05;2.85;;;;;;;21.18;38.67;100886.60;2237453;78;20961;-77
2022/05/06 12:57:49;;;;;;;3.85;2.62;;;;;;;21.36;38.86;100881.27;2234272;78;21005;-79
2022/05/06 13:00:50;;;;;;;4.87;2.72;;;;;;;21.33;38.30;100885.75;2233808;78;21265;-77
2022/05/06 13:03:51;;;;;;;5.00;2.90;;;;;;;21.09;37.93;100879.30;2238437;78;21011;-76
2022/05/06 13:06:52;;;;;;;3.87;2.75;;;;;;;20.99;38.48;100884.33;2233937;78;21507;-76
2022/05/06 13:09:54;;;;;;;5.65;2.75;;;;;;;20.95;38.01;100877.73;2232686;78;20998;-79
2022/05/06 13:12:55;;;;;;;4.40;3.08;;;;;;;20.92;37.82;100883.03;2238321;78;20950;-78
2022/05/06 13:15:59;;;;;;;6.42;2.77;;;;;;;20.84;38.05;100877.06;2238940;78;20985;-78
2022/05/06 13:19:00;;;;;;;6.28;3.08;;;;;;;20.88;37.92;100876.40;2242574;78;20994;-79
2022/05/06 13:22:01;;;;;;;4.97;2.87;;;;;;;20.94;38.21;100868.78;2235362;78;21012;-80
2022/05/06 13:25:03;;;;;;;8.08;2.67;;;;;;;21.00;37.92;100869.78;2231657;78;20974;-78
2022/05/06 13:28:05;;;;;;;8.45;3.22;;;;;;;21.02;37.80;100873.92;2222034;78;20985;-77
2022/05/06 13:31:06;;;;;;;5.60;3.20;;;;;;;20.98;38.01;100870.02;2172175;80;21006;-79
2022/05/06 13:34:07;;;;;;;7.28;3.00;;;;;;;20.82;38.25;100869.17;2191685;79;21525;-78
2022/05/06 13:37:09;;;;;;;5.42;2.67;;;;;;;20.71;38.18;100867.16;2196331;79;21033;-78
2022/05/06 13:40:11;;;;;;;4.33;2.85;;;;;;;20.62;38.00;100860.37;2197806;79;20931;-77
2022/05/06 13:43:12;;;;;;;8.20;3.00;;;;;;;20.62;37.83;100857.15;2189937;80;21338;-80
2022/05/06 13:46:14;;;;;;;5.72;3.40;;;;;;;20.41;37.80;100863.63;2190593;79;20998;-77
2022/05/06 13:49:15;;;;;;;3.80;2.83;;;;;;;20.22;38.13;100860.50;2196377;80;20978;-80
2022/05/06 13:52:16;;;;;;;6.33;3.30;;;;;;;20.21;38.67;100862.34;2211902;79;21018;-79
2022/05/06 13:55:17;;;;;;;6.15;3.47;;;;;;;20.17;38.34;100857.61;2193234;79;20956;-78
2022/05/06 14:01:38;;;;;;;6.90;4.03;;;;;;;20.14;39.01;100855.64;2191616;80;21571;-77
2022/05/06 14:04:40;;;;;;;8.80;3.87;;;;;;;20.29;39.80;100851.34;2200881;80;21544;-77
2022/05/06 14:07:42;;;;;;;4.72;3.70;;;;;;;20.35;39.53;100840.22;2165700;80;21018;-79
2022/05/06 14:10:43;;;;;;;6.10;3.60;;;;;;;20.30;39.32;100837.34;2176737;80;20990;-77
2022/05/06 14:13:45;;;;;;;7.55;3.80;;;;;;;20.26;39.37;100841.52;2196272;80;21508;-77
2022/05/06 14:16:46;;;;;;;5.08;3.52;;;;;;;20.21;39.29;100841.31;2194174;79;21008;-77
2022/05/06 14:19:47;;;;;;;7.10;3.45;;;;;;;20.08;39.15;100838.98;2218060;79;21014;-79
2022/05/06 14:22:48;;;;;;;7.78;3.55;;;;;;;19.93;39.44;100840.59;2181878;80;20947;-79
2022/05/06 14:25:52;;;;;;;7.97;4.22;;;;;;;19.90;39.69;100834.77;2177336;80;20989;-80
2022/05/06 14:28:54;;;;;;;6.35;4.00;;;;;;;19.90;39.79;100837.46;2203393;80;21025;-79
2022/05/06 14:31:56;;;;;;;6.00;3.42;;;;;;;19.86;39.75;100834.38;2228515;78;20952;-81
2022/05/06 14:35:16;;;;;;;9.00;3.60;;;;;;;19.81;39.82;100830.66;2227294;79;21494;-80
2022/05/06 14:38:00;;;;;;;6.65;3.52;;;;;;;19.74;39.89;100825.79;2222801;79;21025;-78